Time;durP1;ratioP1;P1;durP2;ratioP2;P2;SDS_P1;SDS_P2;PMS_P1;PMS_P2;Temp;Humidity;BMP_temperature;BMP_pressure;BME280_temperature;BME280_humidity;BME280_pressure;Samples;Min_cycle;Max_cycle;Signal;HPM_P1;HPM_P2
2024/04/16 00:00:35;;;;;;;4.95;2.05;;;;;;;16.22;56.85;98141.22;5251965;27;20006;-91
2024/04/16 00:03:01;;;;;;;6.63;2.30;;;;;;;15.56;56.80;98045.91;5262012;27;20017;-91
2024/04/16 00:05:30;;;;;;;5.78;2.45;;;;;;;16.32;58.38;98173.75;5267535;27;20018;-92
2024/04/16 00:07:56;;;;;;;4.05;2.50;;;;;;;15.59;57.47;98067.16;5278852;27;20745;-91
2024/04/16 00:10:22;;;;;;;4.22;2.40;;;;;;;15.90;57.72;98116.34;5278593;27;20009;-91
2024/04/16 00:12:48;;;;;;;7.72;2.47;;;;;;;15.62;58.04;98077.72;5266978;27;20025;-91
2024/04/16 00:15:14;;;;;;;5.78;2.83;;;;;;;16.10;57.97;98156.25;5254876;27;20014;-92
2024/04/16 00:17:40;;;;;;;6.20;2.47;;;;;;;16.11;57.76;98149.94;5286962;27;20038;-90
2024/04/16 00:20:07;;;;;;;13.23;2.70;;;;;;;15.87;57.40;98108.47;5283350;27;20006;-91
2024/04/16 00:22:36;;;;;;;6.03;2.30;;;;;;;15.96;57.52;98107.91;5259503;27;20010;-90
2024/04/16 00:25:03;;;;;;;3.83;2.05;;;;;;;16.16;56.55;98133.56;5262411;27;20010;-91
2024/04/16 00:27:29;;;;;;;4.45;2.30;;;;;;;16.03;56.13;98098.56;5287266;27;20433;-89
2024/04/16 00:29:57;;;;;;;4.82;2.10;;;;;;;16.14;55.20;98101.47;5264079;27;20022;-91
2024/04/16 00:32:23;;;;;;;3.90;2.17;;;;;;;16.32;54.79;98091.41;5262902;27;20017;-92
2024/04/16 00:34:49;;;;;;;5.82;2.42;;;;;;;16.40;54.86;98097.19;5262676;27;20010;-91
2024/04/16 00:37:15;;;;;;;3.25;2.35;;;;;;;16.27;54.88;98061.34;5266592;27;20006;-91
2024/04/16 00:39:46;;;;;;;6.43;2.70;;;;;;;16.46;55.14;98092.38;5276630;27;20018;-91
2024/04/16 00:42:12;;;;;;;4.15;2.25;;;;;;;16.21;55.82;98054.53;5266690;27;20024;-91
2024/04/16 00:44:39;;;;;;;7.25;2.40;;;;;;;16.37;54.84;98089.34;5271373;27;20006;-91
2024/04/16 00:47:07;;;;;;;5.00;2.60;;;;;;;16.33;54.62;98077.06;5258757;27;20006;-91
2024/04/16 00:49:34;;;;;;;4.22;2.10;;;;;;;16.01;55.13;98025.38;5268940;27;20006;-91
2024/04/16 00:52:00;;;;;;;7.00;2.30;;;;;;;15.84;55.27;97996.91;5284140;27;20006;-91
2024/04/16 00:54:27;;;;;;;4.03;2.33;;;;;;;16.35;53.72;98064.41;5267470;27;20025;-91
2024/04/16 00:56:56;;;;;;;4.32;2.53;;;;;;;16.58;53.94;98078.22;5264752;27;20007;-91
2024/04/16 00:59:23;;;;;;;4.97;2.20;;;;;;;16.36;54.59;98046.50;5264389;27;20017;-91
2024/04/16 01:01:49;;;;;;;4.68;2.13;;;;;;;16.52;53.72;98063.34;5266567;27;20054;-90
2024/04/16 01:04:15;;;;;;;3.67;2.47;;;;;;;16.36;53.79;98036.63;5263294;27;20006;-90
2024/04/16 01:06:41;;;;;;;5.63;2.25;;;;;;;16.32;53.80;98023.50;5264213;27;20493;-89
2024/04/16 01:09:09;;;;;;;3.90;2.60;;;;;;;16.33;53.99;98012.66;5282131;27;20042;-91
2024/04/16 01:11:35;;;;;;;6.50;2.42;;;;;;;16.41;54.74;98042.53;5271271;27;20010;-90
2024/04/16 01:14:03;;;;;;;5.20;2.42;;;;;;;16.39;54.82;98046.28;5277196;27;20393;-92
2024/04/16 01:16:29;;;;;;;3.95;2.45;;;;;;;16.29;55.02;98037.97;5257159;27;20011;-90
2024/04/16 01:18:55;;;;;;;5.63;2.35;;;;;;;16.10;55.79;98016.78;5279644;27;20020;-91
2024/04/16 01:21:22;;;;;;;7.85;3.15;;;;;;;16.09;55.61;98023.09;5278394;27;20084;-91
2024/04/16 01:23:50;;;;;;;5.57;3.10;;;;;;;16.07;56.46;98040.22;5279545;27;20164;-90
2024/04/16 01:26:16;;;;;;;4.22;2.33;;;;;;;16.00;55.47;98021.84;5261403;27;20025;-91
2024/04/16 01:28:42;;;;;;;6.90;2.45;;;;;;;16.02;56.43;98025.28;5266180;27;20010;-91
2024/04/16 01:31:09;;;;;;;3.35;2.08;;;;;;;15.91;55.81;98005.44;5266516;27;20006;-91
2024/04/16 01:33:35;;;;;;;3.88;2.33;;;;;;;15.78;56.49;97995.47;5265676;27;20020;-91
2024/04/16 01:36:01;;;;;;;4.40;2.17;;;;;;;15.88;55.13;97990.41;5264221;27;20016;-92
2024/04/16 01:38:27;;;;;;;3.78;2.40;;;;;;;15.70;56.03;97968.25;5264388;27;20084;-90
2024/04/16 01:40:56;;;;;;;3.65;2.17;;;;;;;15.90;55.25;98001.06;5262843;27;20007;-90
2024/04/16 01:43:22;;;;;;;4.75;2.67;;;;;;;15.91;55.68;98003.63;5276066;27;20429;-91
2024/04/16 01:45:48;;;;;;;4.72;2.53;;;;;;;15.55;55.83;97943.22;5281178;27;20034;-91
2024/04/16 01:48:14;;;;;;;6.95;2.55;;;;;;;15.80;54.96;97968.56;5280759;27;20370;-91
2024/04/16 01:50:40;;;;;;;3.72;2.20;;;;;;;15.73;56.41;97976.13;5265580;27;20084;-91
2024/04/16 01:53:06;;;;;;;5.18;2.05;;;;;;;15.57;55.84;97941.31;5275531;27;20002;-93
2024/04/16 01:55:34;;;;;;;3.88;2.38;;;;;;;15.51;56.05;97925.63;5280367;27;20010;-92
2024/04/16 01:58:03;;;;;;;6.18;2.35;;;;;;;15.82;56.91;97972.88;5275929;27;20011;-91
2024/04/16 02:00:29;;;;;;;4.70;2.30;;;;;;;15.33;56.46;97908.84;5284513;27;20017;-91
2024/04/16 02:02:56;;;;;;;3.65;2.22;;;;;;;15.74;56.18;97971.63;5262138;27;20079;-91
2024/04/16 02:05:23;;;;;;;3.88;2.38;;;;;;;15.04;56.21;97853.47;5283801;27;20018;-92
2024/04/16 02:07:49;;;;;;;4.85;2.22;;;;;;;15.57;56.50;97935.97;5266899;27;20013;-91
2024/04/16 02:10:15;;;;;;;4.47;2.90;;;;;;;15.40;56.68;97895.94;5275868;27;20902;-90
2024/04/16 02:12:41;;;;;;;6.35;2.30;;;;;;;15.28;56.90;97841.28;5267624;27;20010;-90
2024/04/16 02:15:10;;;;;;;5.05;2.35;;;;;;;15.75;57.27;97896.47;5255048;27;20346;-91
2024/04/16 02:17:37;;;;;;;4.15;2.38;;;;;;;15.61;58.12;97883.91;5262632;27;20470;-90
2024/04/16 02:20:04;;;;;;;4.85;2.50;;;;;;;15.67;58.38;97877.28;5269980;27;20081;-91
2024/04/16 02:22:30;;;;;;;4.75;2.40;;;;;;;15.90;58.95;97904.53;5269740;27;20009;-91
2024/04/16 02:24:56;;;;;;;9.82;2.95;;;;;;;15.88;58.37;97895.72;5257496;27;20018;-90
2024/04/16 02:27:22;;;;;;;5.65;2.63;;;;;;;15.66;58.92;97845.22;5282574;27;20018;-90
2024/04/16 02:29:48;;;;;;;5.93;2.63;;;;;;;15.79;58.90;97859.63;5260140;27;20011;-91
2024/04/16 02:32:17;;;;;;;5.45;2.25;;;;;;;16.07;59.37;97908.81;5282993;27;20470;-91
2024/04/16 02:34:43;;;;;;;4.68;2.45;;;;;;;15.75;59.17;97852.72;5272749;27;20010;-91
2024/04/16 02:37:09;;;;;;;5.78;2.58;;;;;;;15.77;59.16;97848.13;5280819;27;20006;-90
2024/04/16 02:39:35;;;;;;;3.53;2.22;;;;;;;16.21;58.62;97890.88;5279651;27;20348;-90
2024/04/16 02:42:01;;;;;;;8.52;2.80;;;;;;;15.70;58.35;97818.16;5282346;27;20021;-91
2024/04/16 02:44:27;;;;;;;5.32;2.65;;;;;;;15.65;58.42;97830.09;5258325;27;20010;-91
2024/04/16 02:46:53;;;;;;;5.70;2.30;;;;;;;16.25;58.12;97902.28;5276206;27;20010;-91
2024/04/16 02:49:22;;;;;;;8.70;2.35;;;;;;;16.11;58.39;97875.47;5264762;27;20566;-91
2024/04/16 02:51:48;;;;;;;5.82;2.83;;;;;;;16.17;58.67;97884.00;5263578;27;20006;-90
2024/04/16 02:54:13;;;;;;;5.78;3.10;;;;;;;16.25;58.32;97886.19;5263207;27;20459;-90
2024/04/16 02:56:39;;;;;;;4.85;2.38;;;;;;;16.27;58.66;97878.91;5253832;27;20482;-90
2024/04/16 02:59:05;;;;;;;6.43;2.45;;;;;;;16.00;58.35;97833.25;5266491;27;20009;-90
2024/04/16 03:01:32;;;;;;;7.47;2.53;;;;;;;15.51;59.16;97755.94;5274408;27;20016;-91
2024/04/16 03:03:58;;;;;;;3.50;2.45;;;;;;;15.71;58.98;97795.75;5279641;27;20110;-90
2024/04/16 03:06:27;;;;;;;6.30;2.90;;;;;;;15.38;59.15;97758.53;5262405;27;20022;-90
2024/04/16 03:08:52;;;;;;;4.85;2.53;;;;;;;15.70;58.83;97803.84;5264600;27;20055;-91
2024/04/16 03:11:18;;;;;;;4.65;2.75;;;;;;;16.09;58.29;97867.56;5266063;27;20018;-90
2024/04/16 03:13:45;;;;;;;6.22;2.58;;;;;;;16.02;58.57;97860.84;5271788;27;20018;-90
2024/04/16 03:16:11;;;;;;;5.90;2.78;;;;;;;15.97;58.67;97842.34;5276726;27;20007;-90
2024/04/16 03:18:37;;;;;;;6.65;2.38;;;;;;;15.79;58.74;97817.59;5266399;27;20007;-90
2024/04/16 03:21:04;;;;;;;5.30;2.92;;;;;;;15.81;58.70;97820.19;5282152;27;20025;-90
2024/04/16 03:23:33;;;;;;;4.53;2.80;;;;;;;16.05;58.14;97849.94;5266430;27;20010;-90
2024/04/16 03:26:01;;;;;;;5.03;2.65;;;;;;;15.96;58.29;97837.97;5257987;27;20038;-89
2024/04/16 03:28:27;;;;;;;3.70;2.30;;;;;;;15.91;58.02;97820.44;5258535;27;20085;-90
2024/04/16 03:30:53;;;;;;;3.97;2.30;;;;;;;15.73;57.19;97804.56;5263997;27;20362;-90
2024/04/16 03:33:19;;;;;;;3.35;2.47;;;;;;;15.93;57.64;97822.06;5276271;27;20007;-90
2024/04/16 03:35:52;;;;;;;4.10;2.40;;;;;;;15.71;57.94;97806.50;5262532;27;20006;-89
2024/04/16 03:38:18;;;;;;;3.55;1.85;;;;;;;15.52;58.13;97787.13;5278490;27;20006;-90
2024/04/16 03:40:55;;;;;;;3.33;2.00;;;;;;;15.49;59.50;97801.59;5262173;27;20007;-90
2024/04/16 03:43:21;;;;;;;6.88;2.90;;;;;;;15.53;59.46;97799.59;5280450;27;20049;-91
2024/04/16 03:45:51;;;;;;;4.32;2.38;;;;;;;15.55;59.36;97800.34;5253057;27;20003;-92
2024/04/16 03:48:17;;;;;;;5.63;2.47;;;;;;;15.56;59.56;97802.91;5244775;27;20011;-91
2024/04/16 03:50:43;;;;;;;4.30;2.30;;;;;;;15.32;60.11;97754.41;5245030;27;20364;-91
2024/04/16 03:53:09;;;;;;;5.45;2.40;;;;;;;15.38;60.29;97748.69;5245019;27;20019;-91
2024/04/16 03:55:36;;;;;;;8.13;2.72;;;;;;;15.60;60.49;97796.41;5245433;27;20022;-90
2024/04/16 03:58:05;;;;;;;4.78;2.72;;;;;;;15.61;61.10;97783.88;5245413;27;20081;-90
2024/04/16 04:03:32;;;;;;;6.25;3.30;;;;;;;15.45;62.56;97786.66;5576936;25;20425;-90
2024/04/16 04:05:59;;;;;;;6.10;3.20;;;;;;;14.68;62.58;97660.22;5542672;25;20017;-91
2024/04/16 04:08:26;;;;;;;5.78;2.78;;;;;;;14.55;63.17;97662.78;5541636;25;20441;-90
2024/04/16 04:10:52;;;;;;;4.07;2.55;;;;;;;15.36;63.54;97781.88;5529559;25;20056;-90
2024/04/16 04:13:18;;;;;;;4.35;3.10;;;;;;;15.39;62.88;97784.34;5529684;25;20407;-91
2024/04/16 04:15:44;;;;;;;7.82;3.72;;;;;;;14.57;63.87;97666.25;5534690;25;20013;-90
2024/04/16 04:18:10;;;;;;;4.40;2.67;;;;;;;15.28;63.65;97768.09;5537116;25;20033;-92
2024/04/16 04:20:39;;;;;;;7.82;2.83;;;;;;;15.05;62.56;97711.50;5544420;25;20016;-91
2024/04/16 04:23:07;;;;;;;5.22;2.95;;;;;;;14.94;62.38;97676.47;5525006;25;20009;-90
2024/04/16 04:25:33;;;;;;;6.35;2.70;;;;;;;15.49;62.82;97755.19;5538231;25;20082;-90
2024/04/16 04:27:59;;;;;;;6.18;2.80;;;;;;;15.13;62.59;97678.88;5535499;25;20013;-91
2024/04/16 04:30:25;;;;;;;5.93;3.47;;;;;;;15.50;62.58;97722.06;5535747;25;20423;-90
2024/04/16 04:32:51;;;;;;;7.80;3.55;;;;;;;15.40;62.06;97685.16;5542217;25;20005;-90
2024/04/16 04:35:18;;;;;;;5.32;2.90;;;;;;;15.69;63.09;97745.88;5533505;25;20013;-90
2024/04/16 04:37:46;;;;;;;7.47;3.22;;;;;;;15.62;63.34;97721.28;5530058;25;20005;-90
2024/04/16 04:40:13;;;;;;;6.20;2.78;;;;;;;15.45;62.51;97684.84;5534979;25;20006;-91
2024/04/16 04:42:39;;;;;;;5.63;2.92;;;;;;;15.04;62.47;97599.13;5530549;25;20009;-90
2024/04/16 04:45:05;;;;;;;6.43;3.03;;;;;;;15.24;62.48;97624.63;5533497;25;20069;-89
2024/04/16 04:47:31;;;;;;;4.28;2.47;;;;;;;15.35;61.06;97655.13;5531198;25;20006;-90
2024/04/16 04:49:59;;;;;;;5.45;2.80;;;;;;;15.60;60.71;97681.19;5540701;25;20406;-91
2024/04/16 04:52:25;;;;;;;5.65;3.28;;;;;;;15.89;60.54;97715.97;5530105;25;20021;-90
2024/04/16 04:54:53;;;;;;;4.80;2.67;;;;;;;15.90;61.63;97722.22;5526015;25;20001;-90
2024/04/16 04:57:19;;;;;;;6.50;2.97;;;;;;;15.88;62.38;97714.25;5538195;25;20020;-90
2024/04/16 04:59:45;;;;;;;3.55;2.75;;;;;;;15.26;61.34;97615.53;5541703;25;20001;-91
2024/04/16 05:02:11;;;;;;;5.68;2.63;;;;;;;15.49;61.52;97648.88;5530734;25;20483;-91
2024/04/16 05:04:37;;;;;;;6.38;2.53;;;;;;;15.98;60.69;97704.66;5535311;25;20017;-89
2024/04/16 05:07:03;;;;;;;4.13;2.60;;;;;;;15.52;60.76;97607.63;5538777;25;20037;-89
2024/04/16 05:09:29;;;;;;;5.32;2.97;;;;;;;15.88;60.24;97633.00;5543547;25;20015;-90
2024/04/16 05:11:58;;;;;;;4.95;2.88;;;;;;;15.49;60.67;97578.34;5533000;25;20001;-91
2024/04/16 05:14:25;;;;;;;4.22;2.50;;;;;;;15.89;59.77;97629.31;5524404;25;20013;-91
2024/04/16 05:16:51;;;;;;;9.60;3.25;;;;;;;15.98;59.82;97624.22;5512107;26;20074;-91
2024/04/16 05:19:17;;;;;;;7.22;2.97;;;;;;;16.13;59.82;97675.94;5512989;26;20017;-93
2024/04/16 05:21:43;;;;;;;4.57;2.95;;;;;;;16.16;58.96;97661.50;5507751;26;20427;-93
2024/04/16 05:24:11;;;;;;;5.03;2.92;;;;;;;16.36;58.88;97681.59;5512939;26;20005;-91
2024/04/16 05:26:37;;;;;;;6.43;3.22;;;;;;;16.38;58.76;97664.41;5490500;26;20022;-91
2024/04/16 05:29:05;;;;;;;7.95;3.08;;;;;;;16.44;58.72;97671.19;5504018;26;20006;-92
2024/04/16 05:31:31;;;;;;;4.85;2.67;;;;;;;16.57;58.14;97671.22;5508153;26;20039;-94
2024/04/16 05:33:57;;;;;;;6.25;3.30;;;;;;;16.12;57.53;97607.19;5501547;26;20342;-91
2024/04/16 05:36:23;;;;;;;8.63;2.83;;;;;;;16.40;56.99;97605.28;5509038;26;20020;-92
2024/04/16 05:38:49;;;;;;;8.98;4.22;;;;;;;16.38;56.87;97599.19;5514517;26;20006;-92
2024/04/16 05:41:15;;;;;;;6.38;4.00;;;;;;;16.90;57.49;97643.88;5511721;26;20406;-92
2024/04/16 05:43:42;;;;;;;6.55;3.67;;;;;;;16.64;56.42;97579.41;5517932;26;20006;-91
2024/04/16 05:46:11;;;;;;;8.13;3.20;;;;;;;16.54;56.46;97540.78;5514133;26;20002;-92
2024/04/16 05:48:37;;;;;;;5.95;3.15;;;;;;;16.66;56.80;97581.16;5515104;26;19997;-92
2024/04/16 05:51:04;;;;;;;6.78;2.60;;;;;;;17.00;56.63;97657.47;5508533;26;20017;-94
2024/04/16 05:53:30;;;;;;;6.30;3.20;;;;;;;16.66;55.83;97575.78;5523784;26;20002;-92
2024/04/16 05:55:56;;;;;;;6.47;2.72;;;;;;;16.44;56.01;97520.94;5526824;26;20002;-92
2024/04/16 05:58:24;;;;;;;7.43;2.60;;;;;;;16.82;56.05;97555.78;5528551;26;20013;-92
2024/04/16 06:00:50;;;;;;;7.28;3.05;;;;;;;17.07;56.46;97628.34;5525457;26;20049;-92
2024/04/16 06:03:19;;;;;;;4.93;2.60;;;;;;;16.86;56.12;97543.00;5529587;26;20013;-93
2024/04/16 06:05:45;;;;;;;;;;;;;;;17.54;56.44;97614.16;5529045;26;20005;-94
2024/04/16 06:08:11;;;;;;;5.68;3.33;;;;;;;17.67;55.74;97616.78;5526103;26;19929;-95
2024/04/16 06:10:37;;;;;;;7.53;2.42;;;;;;;17.57;55.90;97588.91;5527876;26;20025;-94
2024/04/16 06:13:03;;;;;;;4.93;3.35;;;;;;;16.77;56.16;97498.00;5514740;26;20012;-93
2024/04/16 06:15:29;;;;;;;6.85;2.70;;;;;;;17.09;56.26;97516.31;5514892;26;20006;-93
2024/04/16 06:17:55;;;;;;;4.82;3.00;;;;;;;17.44;56.03;97583.56;5529167;26;20016;-93
2024/04/16 06:20:24;;;;;;;6.05;2.97;;;;;;;17.83;56.31;97612.03;5522103;26;20006;-94
2024/04/16 06:22:50;;;;;;;14.23;4.15;;;;;;;17.37;55.59;97532.13;5522041;26;20017;-93
2024/04/16 06:25:16;;;;;;;10.32;4.13;;;;;;;18.11;56.04;97612.63;5524277;25;20006;-93
2024/04/16 06:27:42;;;;;;;8.30;3.60;;;;;;;18.33;55.57;97597.53;5527010;26;20008;-95
2024/04/16 06:30:09;;;;;;;6.43;3.38;;;;;;;18.50;55.13;97591.69;5528441;26;20001;-93
2024/04/16 06:32:35;;;;;;;8.23;3.47;;;;;;;18.13;54.37;97500.38;5523305;26;20016;-93
2024/04/16 06:35:01;;;;;;;6.30;3.35;;;;;;;18.51;54.65;97555.72;5518146;26;20006;-94
2024/04/16 06:37:29;;;;;;;4.72;3.50;;;;;;;18.66;54.14;97581.41;5515724;26;20017;-94
2024/04/16 06:39:55;;;;;;;7.97;3.50;;;;;;;18.77;53.74;97542.88;5522302;26;20014;-94
2024/04/16 06:42:21;;;;;;;9.18;3.08;;;;;;;18.91;53.56;97540.94;5515534;26;20006;-96
2024/04/16 06:44:47;;;;;;;8.32;3.95;;;;;;;19.41;52.62;97563.78;5509262;26;20390;-95
2024/04/16 06:47:14;;;;;;;5.22;3.03;;;;;;;18.75;52.91;97457.78;5530523;26;20001;-92
2024/04/16 06:49:40;;;;;;;5.72;3.13;;;;;;;18.99;53.09;97495.38;5533862;26;20022;-94
2024/04/16 06:52:08;;;;;;;5.95;3.13;;;;;;;19.77;52.63;97559.00;5526554;26;20448;-93
2024/04/16 06:54:37;;;;;;;6.25;2.58;;;;;;;19.62;52.57;97527.91;5522482;26;20001;-94
2024/04/16 06:57:03;;;;;;;5.82;3.08;;;;;;;19.39;53.54;97511.81;5513618;26;20006;-92
2024/04/16 06:59:29;;;;;;;6.18;3.15;;;;;;;19.39;53.37;97486.72;5528206;26;20020;-94
2024/04/16 07:01:55;;;;;;;6.90;3.13;;;;;;;19.76;52.69;97524.09;5513751;26;20073;-93
2024/04/16 07:04:21;;;;;;;8.55;3.33;;;;;;;19.68;52.78;97544.41;5527130;26;20013;-91
2024/04/16 07:06:47;;;;;;;5.95;3.63;;;;;;;19.60;52.87;97476.78;5534124;26;20001;-93
2024/04/16 07:09:13;;;;;;;7.28;3.45;;;;;;;19.40;52.38;97462.28;5531814;26;20077;-92
2024/04/16 07:11:42;;;;;;;7.28;3.20;;;;;;;19.88;53.43;97542.78;5510450;26;20011;-91
2024/04/16 07:14:08;;;;;;;7.57;3.10;;;;;;;19.48;53.83;97484.06;5524664;26;20001;-96
2024/04/16 07:16:33;;;;;;;5.30;3.35;;;;;;;19.66;53.62;97491.59;5521940;26;20006;-93
2024/04/16 07:18:59;;;;;;;5.60;3.28;;;;;;;19.86;53.45;97511.50;5453878;26;20078;-93
2024/04/16 07:21:26;;;;;;;6.35;2.92;;;;;;;19.77;54.33;97507.75;5496364;26;20010;-94
2024/04/16 07:23:54;;;;;;;7.32;3.38;;;;;;;19.45;54.42;97495.13;5490276;26;20063;-94
2024/04/16 07:26:20;;;;;;;5.93;3.22;;;;;;;19.20;53.88;97444.25;5512676;26;20013;-92
2024/04/16 07:28:49;;;;;;;7.13;3.03;;;;;;;19.42;54.85;97489.13;5517975;26;20008;-90
2024/04/16 07:31:15;;;;;;;5.63;3.28;;;;;;;19.31;54.02;97429.88;5502624;26;20017;-94
2024/04/16 07:33:41;;;;;;;5.60;3.25;;;;;;;19.70;53.27;97471.50;5517558;26;20012;-91
2024/04/16 07:36:08;;;;;;;7.32;3.33;;;;;;;19.83;53.34;97485.66;5515349;26;20002;-90
2024/04/16 07:38:35;;;;;;;10.95;3.65;;;;;;;20.14;52.49;97457.88;5525014;26;20005;-90
2024/04/16 07:41:01;;;;;;;8.48;3.13;;;;;;;19.73;52.10;97403.81;5518517;25;20021;-91
2024/04/16 07:43:27;;;;;;;4.75;3.00;;;;;;;20.57;51.91;97470.31;5516451;26;20013;-92
2024/04/16 07:45:56;;;;;;;5.88;3.13;;;;;;;20.72;51.47;97467.13;5513394;26;20002;-90
2024/04/16 07:48:22;;;;;;;6.45;3.78;;;;;;;20.66;51.59;97464.13;5506390;26;20043;-90
2024/04/16 07:50:48;;;;;;;5.25;3.20;;;;;;;20.67;51.16;97422.63;5518164;26;20538;-93
2024/04/16 07:53:15;;;;;;;8.35;3.67;;;;;;;21.08;50.70;97426.97;5514029;26;20006;-94
2024/04/16 07:55:41;;;;;;;6.47;3.22;;;;;;;21.45;50.62;97452.50;5509327;26;20016;-94
2024/04/16 07:58:07;;;;;;;7.75;2.95;;;;;;;21.24;49.48;97402.06;5517261;26;20005;-92
2024/04/16 08:00:33;;;;;;;4.65;2.75;;;;;;;21.35;49.48;97425.41;5515144;26;20006;-92
2024/04/16 08:03:03;;;;;;;5.55;2.90;;;;;;;21.76;49.35;97464.03;5524132;26;20006;-92
2024/04/16 08:05:29;;;;;;;10.52;3.25;;;;;;;21.74;49.14;97422.72;5511445;26;20001;-92
2024/04/16 08:07:54;;;;;;;5.28;2.65;;;;;;;21.77;49.30;97386.41;5511427;26;20018;-92
2024/04/16 08:10:20;;;;;;;4.15;3.13;;;;;;;21.65;49.36;97467.72;5513941;26;20345;-95
2024/04/16 08:12:46;;;;;;;8.80;3.03;;;;;;;20.91;50.73;97376.31;5517945;26;20001;-90
2024/04/16 08:15:12;;;;;;;3.85;2.58;;;;;;;21.31;51.32;97438.34;5503484;26;20001;-92
2024/04/16 08:17:38;;;;;;;6.20;2.90;;;;;;;21.92;50.46;97469.72;5516746;26;20814;-91
2024/04/16 08:20:08;;;;;;;4.78;2.58;;;;;;;22.28;49.62;97459.09;5523972;26;20073;-93
2024/04/16 08:22:34;;;;;;;5.63;2.40;;;;;;;21.97;49.67;97408.84;5521116;26;20002;-93
2024/04/16 08:25:00;;;;;;;6.22;3.15;;;;;;;21.72;49.53;97411.19;5524050;26;20006;-92
2024/04/16 08:27:26;;;;;;;7.40;2.97;;;;;;;22.02;48.84;97401.16;5523211;26;20100;-94
2024/04/16 08:29:52;;;;;;;7.60;2.97;;;;;;;21.66;49.15;97409.91;5509107;26;20051;-92
2024/04/16 08:32:18;;;;;;;4.63;2.85;;;;;;;21.76;49.67;97400.94;5508666;26;20002;-94
2024/04/16 08:34:44;;;;;;;3.30;2.28;;;;;;;21.56;50.28;97391.97;5524366;26;20001;-91
2024/04/16 08:37:13;;;;;;;6.30;3.00;;;;;;;22.24;49.87;97451.41;5521533;26;20002;-96
2024/04/16 08:39:39;;;;;;;4.15;2.60;;;;;;;22.51;48.55;97456.91;5511682;26;20016;-93
2024/04/16 08:42:08;;;;;;;5.75;3.03;;;;;;;22.52;48.89;97477.56;5515120;26;20016;-93
2024/04/16 08:44:34;;;;;;;4.43;2.78;;;;;;;22.17;48.24;97399.69;5523610;26;20021;-94
2024/04/16 08:47:01;;;;;;;8.13;3.45;;;;;;;21.82;48.45;97360.63;5507000;26;20071;-91
2024/04/16 08:49:28;;;;;;;7.07;3.22;;;;;;;22.22;49.22;97385.69;5517186;26;20021;-93
2024/04/16 08:51:55;;;;;;;6.10;2.80;;;;;;;22.77;49.02;97457.06;5515144;26;20012;-95
2024/04/16 08:54:29;;;;;;;6.25;3.03;;;;;;;22.74;48.73;97438.38;5519694;26;20001;-92
2024/04/16 08:56:55;;;;;;;5.75;2.83;;;;;;;22.71;48.71;97406.16;5523708;26;20017;-93
2024/04/16 08:59:21;;;;;;;7.95;3.22;;;;;;;23.04;48.57;97446.38;5524738;26;20017;-92
2024/04/16 09:01:49;;;;;;;5.15;2.58;;;;;;;22.92;49.41;97451.13;5526805;26;20001;-90
2024/04/16 09:04:16;;;;;;;13.00;3.50;;;;;;;23.22;49.56;97443.69;5527160;26;20006;-91
2024/04/16 09:06:43;;;;;;;7.13;2.90;;;;;;;23.29;49.07;97433.91;5527408;26;20014;-94
2024/04/16 09:09:09;;;;;;;3.97;2.78;;;;;;;22.67;50.67;97402.06;5527424;26;20001;-92
2024/04/16 09:11:40;;;;;;;6.13;2.63;;;;;;;23.20;50.05;97438.41;5520466;26;20074;-95
2024/04/16 09:14:06;;;;;;;5.75;3.05;;;;;;;22.31;50.46;97412.75;5522770;26;20001;-93
2024/04/16 09:16:33;;;;;;;5.88;3.35;;;;;;;22.11;51.65;97384.88;5519738;26;20120;-94
2024/04/16 09:19:07;;;;;;;11.98;2.92;;;;;;;22.38;50.87;97366.13;5524025;26;20017;-94
2024/04/16 09:21:33;;;;;;;5.80;3.05;;;;;;;22.45;51.16;97351.00;5526985;26;20001;-93
2024/04/16 09:24:01;;;;;;;8.77;2.92;;;;;;;23.08;50.52;97397.13;5512954;26;20002;-94
2024/04/16 09:26:27;;;;;;;4.13;2.30;;;;;;;23.25;49.50;97399.97;5523080;26;20003;-93
2024/04/16 09:28:55;;;;;;;4.72;2.70;;;;;;;23.20;50.08;97384.16;5516121;26;20012;-94
2024/04/16 09:31:21;;;;;;;11.13;3.40;;;;;;;23.36;49.41;97416.88;5526862;26;20069;-91
2024/04/16 09:33:47;;;;;;;7.00;3.00;;;;;;;22.87;50.73;97412.78;5527052;26;20029;-93
2024/04/16 09:36:14;;;;;;;5.53;2.72;;;;;;;22.40;50.94;97337.03;5526790;26;20020;-92
2024/04/16 09:38:41;;;;;;;4.28;2.78;;;;;;;22.88;51.10;97344.00;5523401;26;20024;-94
2024/04/16 09:41:08;;;;;;;6.80;4.15;;;;;;;22.96;50.78;97385.59;5515362;26;20346;-94
2024/04/16 09:43:37;;;;;;;7.35;3.20;;;;;;;22.70;52.03;97382.75;5514941;26;20015;-95
2024/04/16 09:46:06;;;;;;;;;;;;;;;23.16;51.75;97399.91;5521913;26;20001;-93
2024/04/16 09:48:33;;;;;;;4.05;2.95;;;;;;;23.32;50.74;97377.50;5520595;26;19930;-93
2024/04/16 09:51:04;;;;;;;7.05;3.35;;;;;;;23.08;50.51;97348.31;5522820;26;20017;-93
2024/04/16 09:53:31;;;;;;;10.40;3.30;;;;;;;23.50;50.26;97391.06;5521838;26;20077;-94
2024/04/16 09:56:00;;;;;;;6.45;3.63;;;;;;;23.15;50.33;97327.69;5522777;26;20084;-92
2024/04/16 09:58:27;;;;;;;7.30;3.50;;;;;;;23.30;51.11;97356.97;5516566;26;20017;-96
2024/04/16 10:00:54;;;;;;;8.95;3.42;;;;;;;23.61;51.53;97375.53;5521644;26;20005;-90
2024/04/16 10:03:26;;;;;;;6.25;3.88;;;;;;;23.52;51.34;97356.47;5519597;26;20565;-90
2024/04/16 10:05:53;;;;;;;7.00;3.55;;;;;;;23.04;53.47;97370.47;5520829;26;20017;-95
2024/04/16 10:08:19;;;;;;;6.55;3.15;;;;;;;23.22;53.96;97343.34;5523415;26;20012;-93
2024/04/16 10:10:48;;;;;;;4.90;3.10;;;;;;;23.61;52.35;97337.56;5520628;26;20074;-93
2024/04/16 10:13:14;;;;;;;7.32;3.33;;;;;;;23.42;52.45;97289.75;5519862;26;20037;-91
2024/04/16 10:15:42;;;;;;;4.53;3.20;;;;;;;23.83;52.56;97300.91;5519923;26;20002;-91
2024/04/16 10:18:11;;;;;;;11.27;3.38;;;;;;;23.29;53.18;97311.88;5520798;25;20013;-90
2024/04/16 10:20:50;;;;;;;7.38;3.20;;;;;;;23.99;52.90;97331.72;5502067;26;20001;-94
2024/04/16 10:23:17;;;;;;;6.43;3.20;;;;;;;23.42;53.94;97328.63;5523845;26;20020;-90
2024/04/16 10:25:51;;;;;;;5.97;3.00;;;;;;;24.05;54.07;97319.38;5521176;26;20082;-92
2024/04/16 10:28:22;;;;;;;7.00;2.97;;;;;;;24.35;52.47;97314.41;5545833;25;20001;-91
2024/04/16 10:30:58;;;;;;;5.68;3.53;;;;;;;24.56;50.54;97327.59;5500950;25;20024;-92
2024/04/16 10:33:24;;;;;;;9.43;4.00;;;;;;;24.80;50.50;97315.94;5509089;26;19997;-93
2024/04/16 10:35:54;;;;;;;9.55;3.42;;;;;;;23.35;51.95;97275.97;5503519;26;20014;-92
2024/04/16 10:38:19;;;;;;;;;;;;;;;24.06;52.20;97320.22;5503741;25;20455;-92
2024/04/16 10:40:54;;;;;;;9.48;4.13;;;;;;;24.26;51.51;97293.66;5517933;26;19923;-91
2024/04/16 10:43:22;;;;;;;10.55;4.95;;;;;;;23.70;51.67;97223.47;5522621;26;20025;-93
2024/04/16 10:45:48;;;;;;;7.10;3.72;;;;;;;23.81;52.42;97254.06;5519553;26;20001;-91
2024/04/16 10:48:16;;;;;;;8.93;3.60;;;;;;;24.45;52.20;97276.25;5519104;26;20074;-93
2024/04/16 10:50:44;;;;;;;6.88;2.95;;;;;;;24.13;51.17;97280.53;5516481;26;20015;-94
2024/04/16 10:53:14;;;;;;;6.35;2.97;;;;;;;24.06;52.08;97227.91;5524093;26;20001;-92
2024/04/16 10:55:40;;;;;;;12.65;3.10;;;;;;;24.04;52.06;97254.34;5524233;26;20012;-92
2024/04/16 10:58:07;;;;;;;7.72;3.30;;;;;;;24.22;51.09;97221.66;5506776;25;20012;-92
2024/04/16 11:00:34;;;;;;;5.13;2.92;;;;;;;24.68;50.90;97255.59;5508131;26;20017;-92
2024/04/16 11:03:01;;;;;;;6.45;2.35;;;;;;;24.27;51.67;97154.13;5514932;26;20009;-96
2024/04/16 11:05:27;;;;;;;5.03;2.53;;;;;;;25.04;50.17;97265.31;5506689;26;20078;-92
2024/04/16 11:07:53;;;;;;;8.40;2.50;;;;;;;24.52;51.06;97182.19;5512578;26;20073;-94
2024/04/16 11:10:22;;;;;;;5.00;2.22;;;;;;;24.71;50.42;97198.16;5520138;26;20442;-92
2024/04/16 11:12:48;;;;;;;5.00;2.58;;;;;;;24.78;50.82;97222.81;5511621;26;20024;-92
2024/04/16 11:15:14;;;;;;;6.80;2.95;;;;;;;24.40;50.66;97154.47;5518288;26;20009;-93
2024/04/16 11:17:40;;;;;;;8.98;2.58;;;;;;;24.65;50.26;97154.50;5513148;26;20005;-94
2024/04/16 11:20:08;;;;;;;8.23;3.00;;;;;;;25.01;49.20;97169.44;5519172;26;20344;-92
2024/04/16 11:22:34;;;;;;;5.20;2.10;;;;;;;25.41;48.48;97203.06;5510654;26;20002;-93
2024/04/16 11:25:00;;;;;;;10.45;2.13;;;;;;;25.20;48.78;97165.53;5522076;26;20001;-93
2024/04/16 11:27:29;;;;;;;6.35;2.08;;;;;;;24.68;50.75;97239.28;5519964;26;20006;-92
2024/04/16 11:29:55;;;;;;;8.63;2.20;;;;;;;24.43;51.33;97207.63;5509292;26;20006;-93
2024/04/16 11:32:21;;;;;;;7.18;1.80;;;;;;;24.74;49.42;97246.75;5515930;26;20011;-93
2024/04/16 11:34:48;;;;;;;9.20;2.40;;;;;;;23.98;49.05;97139.09;5522386;26;20017;-92